This is the latest recevied weather packets stored in our database for station/object IU2EVW-3. If no packets are shown the sender has not sent any weather packets the latest 10 day(s).
| Time | Temp. | Humidity | Pressure | Rain* | Wind** | Luminosity | Snow |
|---|---|---|---|---|---|---|---|
| 1777481902 | 21.11° C | 51% | 1015.4 hPa | - | - | - | - |
| 1777480701 | 21.67° C | 50% | 1015.3 hPa | - | - | - | - |
| 1777479500 | 23.33° C | 42% | 1015.1 hPa | - | - | - | - |
| 1777478299 | 23.33° C | 41% | 1015.3 hPa | - | - | - | - |
| 1777477098 | 23.33° C | 41% | 1015.3 hPa | - | - | - | - |
| 1777475897 | 22.78° C | 42% | 1015.5 hPa | - | - | - | - |
| 1777474696 | 22.78° C | 42% | 1015.5 hPa | - | - | - | - |
| 1777473494 | 22.22° C | 43% | 1015.8 hPa | - | - | - | - |
| 1777472548 | 22.22° C | 44% | 1015.8 hPa | - | - | - | - |
| 1777471347 | 22.22° C | 44% | 1015.9 hPa | - | - | - | - |
| 1777470146 | 21.67° C | 45% | 1016.2 hPa | - | - | - | - |
| 1777468944 | 21.67° C | 44% | 1016.3 hPa | - | - | - | - |
| 1777467743 | 21.67° C | 46% | 1016.4 hPa | - | - | - | - |
| 1777466542 | 22.78° C | 45% | 1016.6 hPa | - | - | - | - |
| 1777465341 | 23.33° C | 44% | 1016.7 hPa | - | - | - | - |
| 1777464139 | 21.67° C | 46% | 1016.9 hPa | - | - | - | - |
| 1777462938 | 21.67° C | 47% | 1017.1 hPa | - | - | - | - |
| 1777461737 | 22.22° C | 47% | 1017.1 hPa | - | - | - | - |
| 1777460535 | 21.67° C | 47% | 1017.4 hPa | - | - | - | - |
| 1777459334 | 20.56° C | 49% | 1017.6 hPa | - | - | - | - |
| 1777458133 | 21.11° C | 49% | 1017.6 hPa | - | - | - | - |
| 1777456932 | 21.67° C | 48% | 1017.6 hPa | - | - | - | - |
| 1777455731 | 21.11° C | 48% | 1017.6 hPa | - | - | - | - |
| 1777454530 | 21.67° C | 47% | 1017.7 hPa | - | - | - | - |
| 1777453328 | 20.56° C | 49% | 1017.9 hPa | - | - | - | - |
* Rain since midnight (hover to see other rain measurements)
** Current wind speed in m/s (hover to see current wind gust speed)